Bunnik, Netherlands
Current Conditions -  °F | °C
As of 4:25 AM on Sunday 21 Dec 2014 (Local Time) from EHAM Reporting Station
Few Clouds Few Clouds  
Wind Chill: 39°   Ceiling: Unl
Heat Index: 45°   Visibility: 6mi
Dew Point: 39°   Wind: 10mph
Humidity: 81%   Direction: 250°WSW
Pressure: 30.33"   Gusts: NA
Location:  52.07°N, 5.2°E
Report Text: EHAM 210325Z 25009KT 9999 FEW035 07/04 Q1027 NOSIG
Loading
Personal Weather Stations






























Interactive Weather Map New forecast layout! Learn more

10-Day Weather Forecast

Advertisements
Track Severe Weather on mobile